Grays Point, Missouri
Current Conditions -  °F | °C
As of 8:55 AM on Saturday 20 Dec 2014 (Local Time) from KHFJ Reporting Station
Haze Haze  
Wind Chill: 32°   Ceiling: 700
Heat Index: 36°   Visibility: 5mi
Dew Point: 36°   Wind: 5mph
Humidity: 100%   Direction: 230°SW
Pressure: 30.22"   Gusts: NA
Location:  37.2308°N, 93.8521°W
Report Text: KHFJ 201455Z AUTO 23004KT 5SM BR OVC007 02/02 A3022 RMK AO2
Loading
Personal Weather Stations






























Interactive Weather Map New forecast layout! Learn more

10-Day Weather Forecast

Advertisements
Track Severe Weather on mobile